sensor_id;sensor_type;location;lat;lon;timestamp;P1;P2;P0
62778;PMS7003;48821;48.796;2.396;2023-05-07T00:00:11;1.00;1.00;0.67
62778;PMS7003;48821;48.796;2.396;2023-05-07T00:01:24;0.67;0.67;0.00
62778;PMS7003;48821;48.796;2.396;2023-05-07T00:02:37;1.00;1.00;1.00
62778;PMS7003;48821;48.796;2.396;2023-05-07T00:03:52;1.17;1.00;1.00
62778;PMS7003;48821;48.796;2.396;2023-05-07T00:05:05;1.17;0.00;0.00
62778;PMS7003;48821;48.796;2.396;2023-05-07T00:06:19;2.00;0.17;0.17
62778;PMS7003;48821;48.796;2.396;2023-05-07T00:07:32;1.00;1.00;1.00
62778;PMS7003;48821;48.796;2.396;2023-05-07T00:08:45;0.83;0.83;0.33
62778;PMS7003;48821;48.796;2.396;2023-05-07T00:09:58;4.83;2.00;2.00
62778;PMS7003;48821;48.796;2.396;2023-05-07T00:11:11;1.17;1.17;1.00
62778;PMS7003;48821;48.796;2.396;2023-05-07T00:12:24;1.67;1.67;1.67
62778;PMS7003;48821;48.796;2.396;2023-05-07T00:13:37;1.00;1.00;1.00
62778;PMS7003;48821;48.796;2.396;2023-05-07T00:14:50;2.00;1.00;1.00
62778;PMS7003;48821;48.796;2.396;2023-05-07T00:16:03;1.00;1.00;0.83
62778;PMS7003;48821;48.796;2.396;2023-05-07T00:17:16;1.00;1.00;0.67
62778;PMS7003;48821;48.796;2.396;2023-05-07T00:18:29;2.17;1.00;1.00
62778;PMS7003;48821;48.796;2.396;2023-05-07T00:19:42;1.00;1.00;0.00
62778;PMS7003;48821;48.796;2.396;2023-05-07T00:20:55;1.50;1.50;1.00
62778;PMS7003;48821;48.796;2.396;2023-05-07T00:22:09;1.67;1.67;1.00
62778;PMS7003;48821;48.796;2.396;2023-05-07T00:23:22;1.17;1.17;1.00
62778;PMS7003;48821;48.796;2.396;2023-05-07T00:24:35;1.00;1.00;1.00
62778;PMS7003;48821;48.796;2.396;2023-05-07T00:25:48;1.00;1.00;1.00
62778;PMS7003;48821;48.796;2.396;2023-05-07T00:27:01;2.00;2.00;1.00
62778;PMS7003;48821;48.796;2.396;2023-05-07T00:28:14;2.50;1.00;0.33
62778;PMS7003;48821;48.796;2.396;2023-05-07T00:29:27;1.00;0.83;0.83
62778;PMS7003;48821;48.796;2.396;2023-05-07T00:30:40;0.83;0.83;0.83
62778;PMS7003;48821;48.796;2.396;2023-05-07T00:31:53;1.33;1.33;1.00
62778;PMS7003;48821;48.796;2.396;2023-05-07T00:33:07;2.17;0.67;0.33
62778;PMS7003;48821;48.796;2.396;2023-05-07T00:34:20;2.83;0.83;0.67
62778;PMS7003;48821;48.796;2.396;2023-05-07T00:35:33;1.00;1.00;1.00
62778;PMS7003;48821;48.796;2.396;2023-05-07T00:36:46;1.83;1.83;1.33
62778;PMS7003;48821;48.796;2.396;2023-05-07T00:37:59;1.67;1.00;1.00
62778;PMS7003;48821;48.796;2.396;2023-05-07T00:39:12;0.67;0.67;0.67
62778;PMS7003;48821;48.796;2.396;2023-05-07T00:40:25;0.00;0.00;0.00
62778;PMS7003;48821;48.796;2.396;2023-05-07T00:41:38;0.67;0.67;0.67
62778;PMS7003;48821;48.796;2.396;2023-05-07T00:42:51;1.00;1.00;1.00
62778;PMS7003;48821;48.796;2.396;2023-05-07T00:44:09;1.00;1.00;1.00
62778;PMS7003;48821;48.796;2.396;2023-05-07T00:45:22;1.50;1.00;1.00
62778;PMS7003;48821;48.796;2.396;2023-05-07T00:46:35;0.50;0.50;0.33
62778;PMS7003;48821;48.796;2.396;2023-05-07T00:47:48;1.17;0.17;0.00
62778;PMS7003;48821;48.796;2.396;2023-05-07T00:49:02;1.50;1.00;1.00
62778;PMS7003;48821;48.796;2.396;2023-05-07T00:50:15;2.00;0.33;0.33
62778;PMS7003;48821;48.796;2.396;2023-05-07T00:51:28;0.50;0.50;0.50
62778;PMS7003;48821;48.796;2.396;2023-05-07T00:52:41;1.00;1.00;1.00
62778;PMS7003;48821;48.796;2.396;2023-05-07T00:53:55;0.00;0.00;0.00
62778;PMS7003;48821;48.796;2.396;2023-05-07T00:55:08;1.00;1.00;1.00
62778;PMS7003;48821;48.796;2.396;2023-05-07T00:56:21;1.67;1.67;1.67
62778;PMS7003;48821;48.796;2.396;2023-05-07T00:57:36;1.00;1.00;1.00
62778;PMS7003;48821;48.796;2.396;2023-05-07T00:58:49;1.33;1.00;1.00
62778;PMS7003;48821;48.796;2.396;2023-05-07T01:00:06;1.00;0.17;0.00
62778;PMS7003;48821;48.796;2.396;2023-05-07T01:01:20;1.00;1.00;1.00
62778;PMS7003;48821;48.796;2.396;2023-05-07T01:02:34;1.00;1.00;1.00
62778;PMS7003;48821;48.796;2.396;2023-05-07T01:03:47;1.00;1.00;1.00
62778;PMS7003;48821;48.796;2.396;2023-05-07T01:04:57;4.00;2.00;1.67
62778;PMS7003;48821;48.796;2.396;2023-05-07T01:06:08;1.67;1.67;1.33
62778;PMS7003;48821;48.796;2.396;2023-05-07T01:07:22;2.33;2.00;1.50
62778;PMS7003;48821;48.796;2.396;2023-05-07T01:08:36;2.00;1.00;1.00
62778;PMS7003;48821;48.796;2.396;2023-05-07T01:09:49;1.17;1.17;1.17
62778;PMS7003;48821;48.796;2.396;2023-05-07T01:10:59;4.00;2.00;2.00
62778;PMS7003;48821;48.796;2.396;2023-05-07T01:12:11;3.00;1.75;1.00
62778;PMS7003;48821;48.796;2.396;2023-05-07T01:13:25;2.67;2.00;1.17
62778;PMS7003;48821;48.796;2.396;2023-05-07T01:14:38;3.00;3.00;2.00
62778;PMS7003;48821;48.796;2.396;2023-05-07T01:15:51;2.50;2.50;2.00
62778;PMS7003;48821;48.796;2.396;2023-05-07T01:17:01;2.00;2.00;1.67
62778;PMS7003;48821;48.796;2.396;2023-05-07T01:18:12;4.00;2.00;2.00
62778;PMS7003;48821;48.796;2.396;2023-05-07T01:19:26;2.00;2.00;2.00
62778;PMS7003;48821;48.796;2.396;2023-05-07T01:20:39;2.17;2.00;1.83
62778;PMS7003;48821;48.796;2.396;2023-05-07T01:21:52;2.33;2.00;2.00
62778;PMS7003;48821;48.796;2.396;2023-05-07T01:23:10;2.00;2.00;1.50
62778;PMS7003;48821;48.796;2.396;2023-05-07T01:24:23;2.00;2.00;2.00
62778;PMS7003;48821;48.796;2.396;2023-05-07T01:25:34;3.33;2.00;1.00
62778;PMS7003;48821;48.796;2.396;2023-05-07T01:26:45;3.00;3.00;3.00
62778;PMS7003;48821;48.796;2.396;2023-05-07T01:27:58;2.83;1.50;1.50
62778;PMS7003;48821;48.796;2.396;2023-05-07T01:29:12;2.00;2.00;2.00
62778;PMS7003;48821;48.796;2.396;2023-05-07T01:30:26;1.33;1.33;1.00
62778;PMS7003;48821;48.796;2.396;2023-05-07T01:31:40;2.33;2.00;2.00
62778;PMS7003;48821;48.796;2.396;2023-05-07T01:33:02;2.00;2.00;1.00
62778;PMS7003;48821;48.796;2.396;2023-05-07T01:34:16;3.67;2.50;2.00
62778;PMS7003;48821;48.796;2.396;2023-05-07T01:35:32;3.33;3.00;2.00
62778;PMS7003;48821;48.796;2.396;2023-05-07T01:36:45;2.33;2.33;2.00
62778;PMS7003;48821;48.796;2.396;2023-05-07T01:37:56;3.00;2.00;2.00
62778;PMS7003;48821;48.796;2.396;2023-05-07T01:39:08;2.00;2.00;2.00
62778;PMS7003;48821;48.796;2.396;2023-05-07T01:40:21;2.00;2.00;1.83
62778;PMS7003;48821;48.796;2.396;2023-05-07T01:41:35;1.50;1.00;1.00
62778;PMS7003;48821;48.796;2.396;2023-05-07T01:42:48;2.00;2.00;2.00
62778;PMS7003;48821;48.796;2.396;2023-05-07T01:44:01;1.33;1.17;1.00
62778;PMS7003;48821;48.796;2.396;2023-05-07T01:45:15;1.67;1.00;1.00
62778;PMS7003;48821;48.796;2.396;2023-05-07T01:46:28;2.00;2.00;1.00
62778;PMS7003;48821;48.796;2.396;2023-05-07T01:47:42;2.67;2.33;1.83
62778;PMS7003;48821;48.796;2.396;2023-05-07T01:48:56;4.17;1.17;1.17
62778;PMS7003;48821;48.796;2.396;2023-05-07T01:50:09;3.33;2.00;1.83
62778;PMS7003;48821;48.796;2.396;2023-05-07T01:51:22;2.00;1.17;1.00
62778;PMS7003;48821;48.796;2.396;2023-05-07T01:52:36;1.67;1.67;1.50
62778;PMS7003;48821;48.796;2.396;2023-05-07T01:53:50;2.00;2.00;1.33
62778;PMS7003;48821;48.796;2.396;2023-05-07T01:55:05;3.50;2.83;2.67
62778;PMS7003;48821;48.796;2.396;2023-05-07T01:56:18;4.00;3.00;2.67
62778;PMS7003;48821;48.796;2.396;2023-05-07T01:57:31;2.00;2.00;1.00
62778;PMS7003;48821;48.796;2.396;2023-05-07T01:58:45;3.33;2.00;2.00
62778;PMS7003;48821;48.796;2.396;2023-05-07T01:59:56;3.00;2.00;2.00
62778;PMS7003;48821;48.796;2.396;2023-05-07T02:01:07;1.00;1.00;1.00
62778;PMS7003;48821;48.796;2.396;2023-05-07T02:02:17;2.67;2.00;1.00
62778;PMS7003;48821;48.796;2.396;2023-05-07T02:03:28;2.00;2.00;2.00
62778;PMS7003;48821;48.796;2.396;2023-05-07T02:04:41;3.67;2.00;1.83
62778;PMS7003;48821;48.796;2.396;2023-05-07T02:05:51;2.00;2.00;2.00
62778;PMS7003;48821;48.796;2.396;2023-05-07T02:07:02;5.00;1.67;1.33
62778;PMS7003;48821;48.796;2.396;2023-05-07T02:08:13;3.00;2.00;1.00
62778;PMS7003;48821;48.796;2.396;2023-05-07T02:09:24;2.33;2.33;2.00
62778;PMS7003;48821;48.796;2.396;2023-05-07T02:10:36;3.80;2.00;2.00
62778;PMS7003;48821;48.796;2.396;2023-05-07T02:11:49;2.00;2.00;2.00
62778;PMS7003;48821;48.796;2.396;2023-05-07T02:13:02;3.17;1.67;1.50
62778;PMS7003;48821;48.796;2.396;2023-05-07T02:14:12;2.00;2.00;2.00
62778;PMS7003;48821;48.796;2.396;2023-05-07T02:15:23;2.00;2.00;1.00
62778;PMS7003;48821;48.796;2.396;2023-05-07T02:16:33;3.00;2.00;2.00
62778;PMS7003;48821;48.796;2.396;2023-05-07T02:18:00;2.00;2.00;2.00
62778;PMS7003;48821;48.796;2.396;2023-05-07T02:19:13;3.50;2.50;2.00
62778;PMS7003;48821;48.796;2.396;2023-05-07T02:20:26;2.50;2.50;2.50
62778;PMS7003;48821;48.796;2.396;2023-05-07T02:21:37;3.33;2.00;1.00
62778;PMS7003;48821;48.796;2.396;2023-05-07T02:22:48;4.00;2.67;2.00
62778;PMS7003;48821;48.796;2.396;2023-05-07T02:23:58;2.00;2.00;2.00
62778;PMS7003;48821;48.796;2.396;2023-05-07T02:25:09;3.00;1.67;1.33
62778;PMS7003;48821;48.796;2.396;2023-05-07T02:26:20;3.33;3.00;3.00
62778;PMS7003;48821;48.796;2.396;2023-05-07T02:27:34;3.17;2.50;2.00
62778;PMS7003;48821;48.796;2.396;2023-05-07T02:28:47;2.33;2.33;2.00
62778;PMS7003;48821;48.796;2.396;2023-05-07T02:30:00;4.33;2.33;2.00
62778;PMS7003;48821;48.796;2.396;2023-05-07T02:31:13;4.00;3.00;3.00
62778;PMS7003;48821;48.796;2.396;2023-05-07T02:32:23;4.00;2.00;2.00
62778;PMS7003;48821;48.796;2.396;2023-05-07T02:33:34;4.00;2.00;2.00
62778;PMS7003;48821;48.796;2.396;2023-05-07T02:34:49;3.00;3.00;2.67
62778;PMS7003;48821;48.796;2.396;2023-05-07T02:36:08;3.83;3.83;3.50
62778;PMS7003;48821;48.796;2.396;2023-05-07T02:37:22;1.67;1.67;1.00
62778;PMS7003;48821;48.796;2.396;2023-05-07T02:38:35;2.00;2.00;1.33
62778;PMS7003;48821;48.796;2.396;2023-05-07T02:39:48;2.17;2.00;2.00
62778;PMS7003;48821;48.796;2.396;2023-05-07T02:41:01;2.83;2.00;2.00
62778;PMS7003;48821;48.796;2.396;2023-05-07T02:42:14;3.17;2.00;2.00
62778;PMS7003;48821;48.796;2.396;2023-05-07T02:43:27;2.50;2.50;2.17
62778;PMS7003;48821;48.796;2.396;2023-05-07T02:44:40;1.50;1.00;1.00
62778;PMS7003;48821;48.796;2.396;2023-05-07T02:46:14;1.00;1.00;0.83
62778;PMS7003;48821;48.796;2.396;2023-05-07T02:47:26;1.00;1.00;1.00
62778;PMS7003;48821;48.796;2.396;2023-05-07T02:48:40;0.83;0.83;0.33
62778;PMS7003;48821;48.796;2.396;2023-05-07T02:49:54;1.00;1.00;1.00
62778;PMS7003;48821;48.796;2.396;2023-05-07T02:51:07;0.83;0.83;0.50
62778;PMS7003;48821;48.796;2.396;2023-05-07T02:52:20;1.00;1.00;1.00
62778;PMS7003;48821;48.796;2.396;2023-05-07T02:53:34;1.00;1.00;1.00
62778;PMS7003;48821;48.796;2.396;2023-05-07T02:54:47;1.33;1.33;1.00
62778;PMS7003;48821;48.796;2.396;2023-05-07T02:56:00;0.00;0.00;0.00
62778;PMS7003;48821;48.796;2.396;2023-05-07T02:57:13;2.00;2.00;1.00
62778;PMS7003;48821;48.796;2.396;2023-05-07T02:58:26;1.33;1.00;1.00
62778;PMS7003;48821;48.796;2.396;2023-05-07T02:59:39;1.83;1.00;1.00
62778;PMS7003;48821;48.796;2.396;2023-05-07T03:00:52;1.00;0.83;0.17
62778;PMS7003;48821;48.796;2.396;2023-05-07T03:02:07;0.83;0.50;0.00
62778;PMS7003;48821;48.796;2.396;2023-05-07T03:03:20;0.33;0.00;0.00
62778;PMS7003;48821;48.796;2.396;2023-05-07T03:04:33;2.33;0.00;0.00
62778;PMS7003;48821;48.796;2.396;2023-05-07T03:05:46;0.33;0.33;0.33
62778;PMS7003;48821;48.796;2.396;2023-05-07T03:06:59;2.00;0.00;0.00
62778;PMS7003;48821;48.796;2.396;2023-05-07T03:08:12;2.33;1.00;1.00
62778;PMS7003;48821;48.796;2.396;2023-05-07T03:09:25;0.00;0.00;0.00
62778;PMS7003;48821;48.796;2.396;2023-05-07T03:10:38;0.00;0.00;0.00
62778;PMS7003;48821;48.796;2.396;2023-05-07T03:11:51;0.00;0.00;0.00
62778;PMS7003;48821;48.796;2.396;2023-05-07T03:13:04;0.00;0.00;0.00
62778;PMS7003;48821;48.796;2.396;2023-05-07T03:14:17;0.00;0.00;0.00
62778;PMS7003;48821;48.796;2.396;2023-05-07T03:15:30;0.83;0.00;0.00
62778;PMS7003;48821;48.796;2.396;2023-05-07T03:16:43;0.50;0.50;0.50
62778;PMS7003;48821;48.796;2.396;2023-05-07T03:17:56;0.00;0.00;0.00
62778;PMS7003;48821;48.796;2.396;2023-05-07T03:19:09;0.00;0.00;0.00
62778;PMS7003;48821;48.796;2.396;2023-05-07T03:20:22;0.00;0.00;0.00
62778;PMS7003;48821;48.796;2.396;2023-05-07T03:21:35;1.00;0.00;0.00
62778;PMS7003;48821;48.796;2.396;2023-05-07T03:22:48;1.17;0.67;0.00
62778;PMS7003;48821;48.796;2.396;2023-05-07T03:24:01;1.00;0.00;0.00
62778;PMS7003;48821;48.796;2.396;2023-05-07T03:25:14;0.17;0.00;0.00
62778;PMS7003;48821;48.796;2.396;2023-05-07T03:26:27;0.00;0.00;0.00
62778;PMS7003;48821;48.796;2.396;2023-05-07T03:27:40;0.33;0.00;0.00
62778;PMS7003;48821;48.796;2.396;2023-05-07T03:28:54;0.00;0.00;0.00
62778;PMS7003;48821;48.796;2.396;2023-05-07T03:30:08;0.00;0.00;0.00
62778;PMS7003;48821;48.796;2.396;2023-05-07T03:31:21;0.00;0.00;0.00
62778;PMS7003;48821;48.796;2.396;2023-05-07T03:32:34;0.00;0.00;0.00
62778;PMS7003;48821;48.796;2.396;2023-05-07T03:33:55;0.00;0.00;0.00
62778;PMS7003;48821;48.796;2.396;2023-05-07T03:35:08;2.00;0.00;0.00
62778;PMS7003;48821;48.796;2.396;2023-05-07T03:36:21;0.00;0.00;0.00
62778;PMS7003;48821;48.796;2.396;2023-05-07T03:37:34;0.67;0.00;0.00
62778;PMS7003;48821;48.796;2.396;2023-05-07T03:38:47;0.00;0.00;0.00
62778;PMS7003;48821;48.796;2.396;2023-05-07T03:40:00;0.00;0.00;0.00
62778;PMS7003;48821;48.796;2.396;2023-05-07T03:41:14;0.00;0.00;0.00
62778;PMS7003;48821;48.796;2.396;2023-05-07T03:42:28;0.00;0.00;0.00
62778;PMS7003;48821;48.796;2.396;2023-05-07T03:43:41;1.00;1.00;0.67
62778;PMS7003;48821;48.796;2.396;2023-05-07T03:44:54;0.00;0.00;0.00
62778;PMS7003;48821;48.796;2.396;2023-05-07T03:46:07;1.00;1.00;0.50
62778;PMS7003;48821;48.796;2.396;2023-05-07T03:47:20;0.00;0.00;0.00
62778;PMS7003;48821;48.796;2.396;2023-05-07T03:48:33;0.00;0.00;0.00
62778;PMS7003;48821;48.796;2.396;2023-05-07T03:49:46;0.33;0.33;0.33
62778;PMS7003;48821;48.796;2.396;2023-05-07T03:50:59;1.33;0.67;0.67
62778;PMS7003;48821;48.796;2.396;2023-05-07T03:52:12;0.00;0.00;0.00
62778;PMS7003;48821;48.796;2.396;2023-05-07T03:53:25;0.50;0.50;0.50
62778;PMS7003;48821;48.796;2.396;2023-05-07T03:54:38;0.33;0.33;0.33
62778;PMS7003;48821;48.796;2.396;2023-05-07T03:55:51;1.83;0.00;0.00
62778;PMS7003;48821;48.796;2.396;2023-05-07T03:57:04;0.00;0.00;0.00
62778;PMS7003;48821;48.796;2.396;2023-05-07T03:58:18;0.00;0.00;0.00
62778;PMS7003;48821;48.796;2.396;2023-05-07T03:59:31;0.83;0.83;0.33
62778;PMS7003;48821;48.796;2.396;2023-05-07T04:00:44;0.00;0.00;0.00
62778;PMS7003;48821;48.796;2.396;2023-05-07T04:01:58;0.50;0.50;0.33
62778;PMS7003;48821;48.796;2.396;2023-05-07T04:03:11;0.00;0.00;0.00
62778;PMS7003;48821;48.796;2.396;2023-05-07T04:04:24;0.33;0.00;0.00
62778;PMS7003;48821;48.796;2.396;2023-05-07T04:05:37;0.00;0.00;0.00
62778;PMS7003;48821;48.796;2.396;2023-05-07T04:06:50;3.67;0.00;0.00
62778;PMS7003;48821;48.796;2.396;2023-05-07T04:08:04;1.00;1.00;0.83
62778;PMS7003;48821;48.796;2.396;2023-05-07T04:09:18;1.00;1.00;1.00
62778;PMS7003;48821;48.796;2.396;2023-05-07T04:10:31;0.50;0.00;0.00
62778;PMS7003;48821;48.796;2.396;2023-05-07T04:11:44;0.83;0.50;0.17
62778;PMS7003;48821;48.796;2.396;2023-05-07T04:12:57;0.00;0.00;0.00
62778;PMS7003;48821;48.796;2.396;2023-05-07T04:14:10;0.00;0.00;0.00
62778;PMS7003;48821;48.796;2.396;2023-05-07T04:15:23;0.00;0.00;0.00
62778;PMS7003;48821;48.796;2.396;2023-05-07T04:16:36;0.00;0.00;0.00
62778;PMS7003;48821;48.796;2.396;2023-05-07T04:17:49;0.17;0.17;0.00
62778;PMS7003;48821;48.796;2.396;2023-05-07T04:19:02;1.00;1.00;0.33
62778;PMS7003;48821;48.796;2.396;2023-05-07T04:20:16;1.50;0.83;0.17
62778;PMS7003;48821;48.796;2.396;2023-05-07T04:21:29;0.50;0.50;0.50
62778;PMS7003;48821;48.796;2.396;2023-05-07T04:22:42;0.00;0.00;0.00
62778;PMS7003;48821;48.796;2.396;2023-05-07T04:23:55;0.00;0.00;0.00
62778;PMS7003;48821;48.796;2.396;2023-05-07T04:25:08;0.83;0.83;0.83
62778;PMS7003;48821;48.796;2.396;2023-05-07T04:26:22;0.00;0.00;0.00
62778;PMS7003;48821;48.796;2.396;2023-05-07T04:27:36;1.17;1.17;1.00
62778;PMS7003;48821;48.796;2.396;2023-05-07T04:28:49;0.50;0.50;0.50
62778;PMS7003;48821;48.796;2.396;2023-05-07T04:30:02;0.33;0.33;0.33
62778;PMS7003;48821;48.796;2.396;2023-05-07T04:31:15;0.50;0.00;0.00
62778;PMS7003;48821;48.796;2.396;2023-05-07T04:32:28;0.50;0.17;0.00
62778;PMS7003;48821;48.796;2.396;2023-05-07T04:33:42;0.67;0.00;0.00
62778;PMS7003;48821;48.796;2.396;2023-05-07T04:34:55;0.00;0.00;0.00
62778;PMS7003;48821;48.796;2.396;2023-05-07T04:36:08;0.17;0.17;0.00
62778;PMS7003;48821;48.796;2.396;2023-05-07T04:37:21;0.17;0.00;0.00
62778;PMS7003;48821;48.796;2.396;2023-05-07T04:38:34;1.00;1.00;0.50
62778;PMS7003;48821;48.796;2.396;2023-05-07T04:39:48;0.83;0.83;0.67
62778;PMS7003;48821;48.796;2.396;2023-05-07T04:41:04;2.33;0.67;0.50
62778;PMS7003;48821;48.796;2.396;2023-05-07T04:42:18;1.00;0.00;0.00
62778;PMS7003;48821;48.796;2.396;2023-05-07T04:43:31;1.00;1.00;1.00
62778;PMS7003;48821;48.796;2.396;2023-05-07T04:44:44;0.50;0.50;0.00
62778;PMS7003;48821;48.796;2.396;2023-05-07T04:45:57;0.67;0.67;0.00
62778;PMS7003;48821;48.796;2.396;2023-05-07T04:47:11;0.50;0.00;0.00
62778;PMS7003;48821;48.796;2.396;2023-05-07T04:48:24;1.00;1.00;1.00
62778;PMS7003;48821;48.796;2.396;2023-05-07T04:49:38;0.67;0.67;0.67
62778;PMS7003;48821;48.796;2.396;2023-05-07T04:50:51;2.00;0.00;0.00
62778;PMS7003;48821;48.796;2.396;2023-05-07T04:52:04;2.67;0.83;0.67
62778;PMS7003;48821;48.796;2.396;2023-05-07T04:53:17;1.50;0.50;0.50
62778;PMS7003;48821;48.796;2.396;2023-05-07T04:54:30;0.50;0.00;0.00
62778;PMS7003;48821;48.796;2.396;2023-05-07T04:55:44;0.83;0.00;0.00
62778;PMS7003;48821;48.796;2.396;2023-05-07T04:56:57;1.00;1.00;1.00
62778;PMS7003;48821;48.796;2.396;2023-05-07T04:58:11;1.50;1.00;1.00
62778;PMS7003;48821;48.796;2.396;2023-05-07T04:59:24;1.00;0.00;0.00
62778;PMS7003;48821;48.796;2.396;2023-05-07T05:00:38;1.00;1.00;1.00
62778;PMS7003;48821;48.796;2.396;2023-05-07T05:01:52;1.67;0.83;0.67
62778;PMS7003;48821;48.796;2.396;2023-05-07T05:03:06;1.00;0.00;0.00
62778;PMS7003;48821;48.796;2.396;2023-05-07T05:04:19;3.33;1.50;0.17
62778;PMS7003;48821;48.796;2.396;2023-05-07T05:05:32;1.17;0.67;0.17
62778;PMS7003;48821;48.796;2.396;2023-05-07T05:06:45;2.00;0.17;0.00
62778;PMS7003;48821;48.796;2.396;2023-05-07T05:07:58;1.50;0.33;0.00
62778;PMS7003;48821;48.796;2.396;2023-05-07T05:09:11;1.00;0.00;0.00
62778;PMS7003;48821;48.796;2.396;2023-05-07T05:10:24;1.33;0.00;0.00
62778;PMS7003;48821;48.796;2.396;2023-05-07T05:11:38;0.33;0.17;0.00
62778;PMS7003;48821;48.796;2.396;2023-05-07T05:12:51;1.33;1.00;1.00
62778;PMS7003;48821;48.796;2.396;2023-05-07T05:14:04;1.00;0.50;0.50
62778;PMS7003;48821;48.796;2.396;2023-05-07T05:15:17;0.17;0.17;0.17
62778;PMS7003;48821;48.796;2.396;2023-05-07T05:16:30;1.00;1.00;1.00
62778;PMS7003;48821;48.796;2.396;2023-05-07T05:17:43;0.67;0.00;0.00
62778;PMS7003;48821;48.796;2.396;2023-05-07T05:18:56;0.17;0.17;0.00
62778;PMS7003;48821;48.796;2.396;2023-05-07T05:20:09;0.17;0.17;0.00
62778;PMS7003;48821;48.796;2.396;2023-05-07T05:21:24;0.00;0.00;0.00
62778;PMS7003;48821;48.796;2.396;2023-05-07T05:22:37;1.00;0.50;0.00
62778;PMS7003;48821;48.796;2.396;2023-05-07T05:23:50;1.83;0.00;0.00
62778;PMS7003;48821;48.796;2.396;2023-05-07T05:25:04;2.00;0.00;0.00
62778;PMS7003;48821;48.796;2.396;2023-05-07T05:26:17;0.00;0.00;0.00
62778;PMS7003;48821;48.796;2.396;2023-05-07T05:27:31;1.00;1.00;1.00
62778;PMS7003;48821;48.796;2.396;2023-05-07T05:28:44;0.00;0.00;0.00
62778;PMS7003;48821;48.796;2.396;2023-05-07T05:29:57;0.00;0.00;0.00
62778;PMS7003;48821;48.796;2.396;2023-05-07T05:31:10;0.00;0.00;0.00
62778;PMS7003;48821;48.796;2.396;2023-05-07T05:32:23;0.50;0.50;0.17
62778;PMS7003;48821;48.796;2.396;2023-05-07T05:33:36;1.00;0.00;0.00
62778;PMS7003;48821;48.796;2.396;2023-05-07T05:34:49;0.17;0.17;0.00
62778;PMS7003;48821;48.796;2.396;2023-05-07T05:36:02;1.17;0.00;0.00
62778;PMS7003;48821;48.796;2.396;2023-05-07T05:37:15;1.00;1.00;0.33
62778;PMS7003;48821;48.796;2.396;2023-05-07T05:38:28;0.00;0.00;0.00
62778;PMS7003;48821;48.796;2.396;2023-05-07T05:39:41;0.67;0.67;0.33
62778;PMS7003;48821;48.796;2.396;2023-05-07T05:40:55;1.17;0.00;0.00
62778;PMS7003;48821;48.796;2.396;2023-05-07T05:42:08;0.00;0.00;0.00
62778;PMS7003;48821;48.796;2.396;2023-05-07T05:43:21;0.00;0.00;0.00
62778;PMS7003;48821;48.796;2.396;2023-05-07T05:44:34;0.00;0.00;0.00
62778;PMS7003;48821;48.796;2.396;2023-05-07T05:45:47;1.67;0.00;0.00
62778;PMS7003;48821;48.796;2.396;2023-05-07T05:47:00;0.00;0.00;0.00
62778;PMS7003;48821;48.796;2.396;2023-05-07T05:48:13;0.00;0.00;0.00
62778;PMS7003;48821;48.796;2.396;2023-05-07T05:49:26;0.33;0.33;0.33
62778;PMS7003;48821;48.796;2.396;2023-05-07T05:50:39;0.50;0.50;0.33
62778;PMS7003;48821;48.796;2.396;2023-05-07T05:51:52;0.00;0.00;0.00
62778;PMS7003;48821;48.796;2.396;2023-05-07T05:53:05;0.00;0.00;0.00
62778;PMS7003;48821;48.796;2.396;2023-05-07T05:54:18;0.33;0.00;0.00
62778;PMS7003;48821;48.796;2.396;2023-05-07T05:55:31;0.17;0.17;0.17
62778;PMS7003;48821;48.796;2.396;2023-05-07T05:56:45;0.83;0.00;0.00
62778;PMS7003;48821;48.796;2.396;2023-05-07T05:57:59;0.00;0.00;0.00
62778;PMS7003;48821;48.796;2.396;2023-05-07T05:59:12;0.67;0.67;0.00
62778;PMS7003;48821;48.796;2.396;2023-05-07T06:00:25;0.00;0.00;0.00
62778;PMS7003;48821;48.796;2.396;2023-05-07T06:01:38;0.00;0.00;0.00
62778;PMS7003;48821;48.796;2.396;2023-05-07T06:02:51;1.67;0.83;0.83
62778;PMS7003;48821;48.796;2.396;2023-05-07T06:04:04;0.00;0.00;0.00
62778;PMS7003;48821;48.796;2.396;2023-05-07T06:05:17;0.00;0.00;0.00
62778;PMS7003;48821;48.796;2.396;2023-05-07T06:06:30;0.00;0.00;0.00
62778;PMS7003;48821;48.796;2.396;2023-05-07T06:07:44;0.33;0.33;0.00
62778;PMS7003;48821;48.796;2.396;2023-05-07T06:08:57;0.00;0.00;0.00
62778;PMS7003;48821;48.796;2.396;2023-05-07T06:10:10;0.50;0.50;0.00
62778;PMS7003;48821;48.796;2.396;2023-05-07T06:11:23;0.00;0.00;0.00
62778;PMS7003;48821;48.796;2.396;2023-05-07T06:12:36;0.00;0.00;0.00
62778;PMS7003;48821;48.796;2.396;2023-05-07T06:13:49;0.17;0.00;0.00
62778;PMS7003;48821;48.796;2.396;2023-05-07T06:15:02;0.00;0.00;0.00
62778;PMS7003;48821;48.796;2.396;2023-05-07T06:16:15;0.00;0.00;0.00
62778;PMS7003;48821;48.796;2.396;2023-05-07T06:17:28;1.00;1.00;0.00
62778;PMS7003;48821;48.796;2.396;2023-05-07T06:18:41;0.00;0.00;0.00
62778;PMS7003;48821;48.796;2.396;2023-05-07T06:19:54;0.00;0.00;0.00
62778;PMS7003;48821;48.796;2.396;2023-05-07T06:21:07;0.50;0.00;0.00
62778;PMS7003;48821;48.796;2.396;2023-05-07T06:22:20;1.00;0.00;0.00
62778;PMS7003;48821;48.796;2.396;2023-05-07T06:23:33;1.00;1.00;0.33
62778;PMS7003;48821;48.796;2.396;2023-05-07T06:24:46;1.00;1.00;1.00
62778;PMS7003;48821;48.796;2.396;2023-05-07T06:25:59;1.00;1.00;0.50
62778;PMS7003;48821;48.796;2.396;2023-05-07T06:27:12;0.33;0.33;0.33
62778;PMS7003;48821;48.796;2.396;2023-05-07T06:28:25;2.17;2.00;1.17
62778;PMS7003;48821;48.796;2.396;2023-05-07T06:29:39;1.00;1.00;0.83
62778;PMS7003;48821;48.796;2.396;2023-05-07T06:30:51;0.67;0.33;0.00
62778;PMS7003;48821;48.796;2.396;2023-05-07T06:32:08;2.00;1.00;1.00
62778;PMS7003;48821;48.796;2.396;2023-05-07T06:33:21;1.00;1.00;1.00
62778;PMS7003;48821;48.796;2.396;2023-05-07T06:34:34;1.00;1.00;0.17
62778;PMS7003;48821;48.796;2.396;2023-05-07T06:35:47;1.00;1.00;1.00
62778;PMS7003;48821;48.796;2.396;2023-05-07T06:37:00;2.00;0.50;0.50
62778;PMS7003;48821;48.796;2.396;2023-05-07T06:38:13;1.17;1.17;0.83
62778;PMS7003;48821;48.796;2.396;2023-05-07T06:39:26;0.00;0.00;0.00
62778;PMS7003;48821;48.796;2.396;2023-05-07T06:40:39;1.00;1.00;1.00
62778;PMS7003;48821;48.796;2.396;2023-05-07T06:41:53;1.00;1.00;0.67
62778;PMS7003;48821;48.796;2.396;2023-05-07T06:43:06;0.67;0.67;0.67
62778;PMS7003;48821;48.796;2.396;2023-05-07T06:44:19;0.00;0.00;0.00
62778;PMS7003;48821;48.796;2.396;2023-05-07T06:45:32;1.00;0.17;0.00
62778;PMS7003;48821;48.796;2.396;2023-05-07T06:46:45;0.00;0.00;0.00
62778;PMS7003;48821;48.796;2.396;2023-05-07T06:47:58;0.00;0.00;0.00
62778;PMS7003;48821;48.796;2.396;2023-05-07T06:49:12;1.00;0.00;0.00
62778;PMS7003;48821;48.796;2.396;2023-05-07T06:50:25;0.00;0.00;0.00
62778;PMS7003;48821;48.796;2.396;2023-05-07T06:51:38;1.67;0.00;0.00
62778;PMS7003;48821;48.796;2.396;2023-05-07T06:52:51;0.17;0.17;0.17
62778;PMS7003;48821;48.796;2.396;2023-05-07T06:54:04;0.00;0.00;0.00
62778;PMS7003;48821;48.796;2.396;2023-05-07T06:55:17;0.33;0.33;0.00
62778;PMS7003;48821;48.796;2.396;2023-05-07T06:56:32;0.33;0.33;0.17
62778;PMS7003;48821;48.796;2.396;2023-05-07T06:57:45;0.00;0.00;0.00
62778;PMS7003;48821;48.796;2.396;2023-05-07T06:58:59;0.00;0.00;0.00
62778;PMS7003;48821;48.796;2.396;2023-05-07T07:00:12;0.00;0.00;0.00
62778;PMS7003;48821;48.796;2.396;2023-05-07T07:01:25;1.50;0.00;0.00
62778;PMS7003;48821;48.796;2.396;2023-05-07T07:02:38;0.00;0.00;0.00
62778;PMS7003;48821;48.796;2.396;2023-05-07T07:03:52;0.00;0.00;0.00
62778;PMS7003;48821;48.796;2.396;2023-05-07T07:05:05;1.00;1.00;0.00
62778;PMS7003;48821;48.796;2.396;2023-05-07T07:06:18;0.50;0.50;0.00
62778;PMS7003;48821;48.796;2.396;2023-05-07T07:07:31;0.00;0.00;0.00
62778;PMS7003;48821;48.796;2.396;2023-05-07T07:08:44;0.00;0.00;0.00